• Join FlightAware (Why Join?)
  • Login
  • US Flag 
10:22PM EST


 

Airport Tracker/Info


-or-


 

Live Flight TrackerFlight Track Log ✈ LIA553 ✈ 12-May-2013 ✈ TIST / STT - TQPF / AXA

Flight Track Log - Related Links

Times and Time Zones

All times are in EDT time to prevent confusion due to time zone crossing. See the LIA553 flight status page for this flight to view local times or setup timezone preferences in your user account.

Time Position Orientation Groundspeed Altitude Reporting Facility
EDT Latitude Longitude Course Direction KTS MPH feet Rate Location/Type
01:44PM 18.3333 -64.9500 109° East 120 138 1,100  Level San Juan Center
01:45PM 18.3167 -64.9000 109° East 130 150 2,500 1,380 Climbing San Juan Center
01:46PM 18.3000 -64.8667 118° Southeast 160 184 3,900 1,320 Climbing San Juan Center
01:47PM 18.3000 -64.8167 90° East 170 196 5,200 1,260 Climbing San Juan Center
01:48PM 18.3167 -64.7667 71° East 180 207 6,500 1,260 Climbing San Juan Center
01:49PM 18.3167 -64.7000 90° East 190 219 7,800 1,200 Climbing San Juan Center
01:50PM 18.3167 -64.6500 90° East 200 230 9,000 1,200 Climbing San Juan Center
01:51PM 18.3167 -64.5833 90° East 210 242 10,200 960 Climbing San Juan Center
01:52PM 18.3167 -64.5333 90° East 220 253 11,000 360 Climbing San Juan Center
01:53PM 18.3333 -64.4500 78° East 250 288 11,000  Level San Juan Center
01:54PM 18.3167 -64.3833 105° East 270 311 11,000  Level San Juan Center
01:55PM 18.3000 -64.3000 102° East 270 311 11,000  Level San Juan Center
01:56PM 18.2833 -64.2167 102° East 270 311 11,000  Level San Juan Center
01:57PM 18.3000 -64.1333 78° East 280 322 11,000  Level San Juan Center
01:58PM 18.3167 -64.0667 75° East 280 322 11,100  Climbing San Juan Center
01:59PM 18.3167 -63.9833 90° East 270 311 11,100  Level San Juan Center
02:00PM 18.3000 -63.9000 102° East 280 322 11,100  Level San Juan Center
02:01PM 18.2833 -63.8167 102° East 280 322 11,100  Level San Juan Center
02:03PM 18.2792 -63.7379 93° East  Level FlightAware Approximate
02:10PM 18.2516 -63.2286 93° East  Level FlightAware Approximate
02:11PM 18.2337 -63.1593 113° Southeast  Level FlightAware Approximate
02:12PM 18.2049 -63.0932 118° Southeast  Level FlightAware Approximate
02:13PM 18.2000 -63.0500 90° East  Level FlightAware Approximate
02:14PM 18.2048 -63.0551 90° East  Level Estimated
02:15PM 18.2000 -63.0500 90° East  Level FlightAware Approximate
02:16PM 18.2048 -63.0551 90° East  Level Estimated
02:17PM 18.2000 -63.0500 90° East  Level FlightAware Approximate
02:18PM 18.2048 -63.0551 90° East  Level Estimated
02:19PM 18.2000 -63.0500 90° East  Level FlightAware Approximate
02:20PM 18.2048 -63.0551 90° East  Level Estimated
02:21PM 18.2000 -63.0500 90° East  Level FlightAware Approximate
02:22PM 18.2048 -63.0551 90° East  Level Estimated
02:23PM 18.2000 -63.0500 90° East  Level FlightAware Approximate
02:24PM 18.2048 -63.0551 90° East  Level Estimated
02:25PM 18.2000 -63.0500 90° East  Level FlightAware Approximate
02:26PM 18.2048 -63.0551 90° East  Level Estimated
02:27PM 18.2000 -63.0500 90° East  Level FlightAware Approximate
02:28PM 18.2048 -63.0551 90° East  Level Estimated